sensor_id;sensor_type;location;lat;lon;timestamp;P1;durP1;ratioP1;P2;durP2;ratioP2
37431;SDS011;23292;51.300;6.252;2023-11-22T00:01:06;19.85;;;11.90;;
37431;SDS011;23292;51.300;6.252;2023-11-22T00:03:33;20.73;;;12.60;;
37431;SDS011;23292;51.300;6.252;2023-11-22T00:06:00;26.15;;;13.15;;
37431;SDS011;23292;51.300;6.252;2023-11-22T00:08:30;21.38;;;12.70;;
37431;SDS011;23292;51.300;6.252;2023-11-22T00:10:57;23.08;;;12.82;;
37431;SDS011;23292;51.300;6.252;2023-11-22T00:13:25;25.55;;;13.23;;
37431;SDS011;23292;51.300;6.252;2023-11-22T00:15:51;25.63;;;13.20;;
37431;SDS011;23292;51.300;6.252;2023-11-22T00:18:18;30.02;;;14.93;;
37431;SDS011;23292;51.300;6.252;2023-11-22T00:20:45;27.65;;;15.43;;
37431;SDS011;23292;51.300;6.252;2023-11-22T00:23:15;28.73;;;15.27;;
37431;SDS011;23292;51.300;6.252;2023-11-22T00:25:42;32.65;;;16.58;;
37431;SDS011;23292;51.300;6.252;2023-11-22T00:28:08;27.55;;;14.77;;
37431;SDS011;23292;51.300;6.252;2023-11-22T00:30:36;29.52;;;17.08;;
37431;SDS011;23292;51.300;6.252;2023-11-22T00:33:03;30.08;;;16.35;;
37431;SDS011;23292;51.300;6.252;2023-11-22T00:35:31;28.65;;;15.90;;
37431;SDS011;23292;51.300;6.252;2023-11-22T00:37:58;28.42;;;16.05;;
37431;SDS011;23292;51.300;6.252;2023-11-22T00:40:25;31.10;;;16.42;;
37431;SDS011;23292;51.300;6.252;2023-11-22T00:42:52;28.70;;;15.60;;
37431;SDS011;23292;51.300;6.252;2023-11-22T00:45:19;26.10;;;14.63;;
37431;SDS011;23292;51.300;6.252;2023-11-22T00:47:47;35.67;;;15.48;;
37431;SDS011;23292;51.300;6.252;2023-11-22T00:50:14;27.50;;;15.50;;
37431;SDS011;23292;51.300;6.252;2023-11-22T00:52:46;31.33;;;15.35;;
37431;SDS011;23292;51.300;6.252;2023-11-22T00:55:14;27.60;;;14.68;;
37431;SDS011;23292;51.300;6.252;2023-11-22T00:57:42;30.20;;;15.13;;
37431;SDS011;23292;51.300;6.252;2023-11-22T01:00:09;31.63;;;15.75;;
37431;SDS011;23292;51.300;6.252;2023-11-22T01:02:37;31.00;;;16.25;;
37431;SDS011;23292;51.300;6.252;2023-11-22T01:05:05;26.88;;;14.90;;
37431;SDS011;23292;51.300;6.252;2023-11-22T01:07:37;29.08;;;16.02;;
37431;SDS011;23292;51.300;6.252;2023-11-22T01:10:04;29.85;;;14.57;;
37431;SDS011;23292;51.300;6.252;2023-11-22T01:12:32;29.17;;;15.98;;
37431;SDS011;23292;51.300;6.252;2023-11-22T01:14:59;27.02;;;15.00;;
37431;SDS011;23292;51.300;6.252;2023-11-22T01:17:26;30.35;;;15.73;;
37431;SDS011;23292;51.300;6.252;2023-11-22T01:19:54;31.80;;;16.02;;
37431;SDS011;23292;51.300;6.252;2023-11-22T01:22:21;33.30;;;17.08;;
37431;SDS011;23292;51.300;6.252;2023-11-22T01:24:48;31.83;;;16.33;;
37431;SDS011;23292;51.300;6.252;2023-11-22T01:27:17;33.85;;;17.33;;
37431;SDS011;23292;51.300;6.252;2023-11-22T01:29:43;39.08;;;18.30;;
37431;SDS011;23292;51.300;6.252;2023-11-22T01:32:10;40.25;;;18.33;;
37431;SDS011;23292;51.300;6.252;2023-11-22T01:34:37;39.92;;;18.80;;
37431;SDS011;23292;51.300;6.252;2023-11-22T01:37:04;35.47;;;17.98;;
37431;SDS011;23292;51.300;6.252;2023-11-22T01:39:31;38.53;;;18.30;;
37431;SDS011;23292;51.300;6.252;2023-11-22T01:41:58;38.78;;;19.00;;
37431;SDS011;23292;51.300;6.252;2023-11-22T01:44:25;35.38;;;18.52;;
37431;SDS011;23292;51.300;6.252;2023-11-22T01:46:54;44.33;;;19.63;;
37431;SDS011;23292;51.300;6.252;2023-11-22T01:49:22;40.72;;;18.77;;
37431;SDS011;23292;51.300;6.252;2023-11-22T01:51:50;37.83;;;20.02;;
37431;SDS011;23292;51.300;6.252;2023-11-22T01:54:16;38.28;;;19.35;;
37431;SDS011;23292;51.300;6.252;2023-11-22T01:56:46;36.28;;;18.08;;
37431;SDS011;23292;51.300;6.252;2023-11-22T01:59:14;37.03;;;19.15;;
37431;SDS011;23292;51.300;6.252;2023-11-22T02:01:42;36.28;;;19.73;;
37431;SDS011;23292;51.300;6.252;2023-11-22T02:04:10;38.00;;;18.70;;
37431;SDS011;23292;51.300;6.252;2023-11-22T02:06:38;39.25;;;20.48;;
37431;SDS011;23292;51.300;6.252;2023-11-22T02:09:06;41.50;;;21.48;;
37431;SDS011;23292;51.300;6.252;2023-11-22T02:11:33;43.17;;;20.38;;
37431;SDS011;23292;51.300;6.252;2023-11-22T02:14:00;46.08;;;22.13;;
37431;SDS011;23292;51.300;6.252;2023-11-22T02:16:28;41.60;;;21.55;;
37431;SDS011;23292;51.300;6.252;2023-11-22T02:18:55;43.15;;;21.25;;
37431;SDS011;23292;51.300;6.252;2023-11-22T02:21:22;43.88;;;23.23;;
37431;SDS011;23292;51.300;6.252;2023-11-22T02:23:49;49.58;;;23.63;;
37431;SDS011;23292;51.300;6.252;2023-11-22T02:26:16;47.15;;;23.15;;
37431;SDS011;23292;51.300;6.252;2023-11-22T02:28:44;46.42;;;22.58;;
37431;SDS011;23292;51.300;6.252;2023-11-22T02:31:11;46.15;;;23.60;;
37431;SDS011;23292;51.300;6.252;2023-11-22T02:33:39;42.03;;;21.15;;
37431;SDS011;23292;51.300;6.252;2023-11-22T02:36:06;54.35;;;23.98;;
37431;SDS011;23292;51.300;6.252;2023-11-22T02:38:34;54.05;;;25.25;;
37431;SDS011;23292;51.300;6.252;2023-11-22T02:41:01;45.22;;;23.33;;
37431;SDS011;23292;51.300;6.252;2023-11-22T02:43:28;50.05;;;22.75;;
37431;SDS011;23292;51.300;6.252;2023-11-22T02:45:55;51.85;;;24.13;;
37431;SDS011;23292;51.300;6.252;2023-11-22T02:48:22;52.38;;;25.10;;
37431;SDS011;23292;51.300;6.252;2023-11-22T02:50:50;49.78;;;24.27;;
37431;SDS011;23292;51.300;6.252;2023-11-22T02:53:16;55.22;;;25.17;;
37431;SDS011;23292;51.300;6.252;2023-11-22T02:55:43;43.58;;;22.75;;
37431;SDS011;23292;51.300;6.252;2023-11-22T02:58:10;52.72;;;24.65;;
37431;SDS011;23292;51.300;6.252;2023-11-22T03:00:42;53.70;;;24.92;;
37431;SDS011;23292;51.300;6.252;2023-11-22T03:03:09;50.13;;;23.63;;
37431;SDS011;23292;51.300;6.252;2023-11-22T03:05:38;46.80;;;22.60;;
37431;SDS011;23292;51.300;6.252;2023-11-22T03:08:06;50.95;;;23.75;;
37431;SDS011;23292;51.300;6.252;2023-11-22T03:10:34;49.13;;;24.08;;
37431;SDS011;23292;51.300;6.252;2023-11-22T03:13:01;46.92;;;23.98;;
37431;SDS011;23292;51.300;6.252;2023-11-22T03:15:28;49.95;;;24.48;;
37431;SDS011;23292;51.300;6.252;2023-11-22T03:17:55;45.53;;;23.38;;
37431;SDS011;23292;51.300;6.252;2023-11-22T03:20:22;46.50;;;24.33;;
37431;SDS011;23292;51.300;6.252;2023-11-22T03:22:50;52.42;;;25.02;;
37431;SDS011;23292;51.300;6.252;2023-11-22T03:25:17;49.15;;;23.15;;
37431;SDS011;23292;51.300;6.252;2023-11-22T03:27:45;51.20;;;25.92;;
37431;SDS011;23292;51.300;6.252;2023-11-22T03:30:13;55.55;;;24.17;;
37431;SDS011;23292;51.300;6.252;2023-11-22T03:32:41;52.42;;;24.77;;
37431;SDS011;23292;51.300;6.252;2023-11-22T03:35:10;51.75;;;24.77;;
37431;SDS011;23292;51.300;6.252;2023-11-22T03:37:38;50.80;;;24.95;;
37431;SDS011;23292;51.300;6.252;2023-11-22T03:40:05;56.35;;;26.52;;
37431;SDS011;23292;51.300;6.252;2023-11-22T03:42:34;52.70;;;26.23;;
37431;SDS011;23292;51.300;6.252;2023-11-22T03:45:03;56.78;;;26.63;;
37431;SDS011;23292;51.300;6.252;2023-11-22T03:47:31;61.00;;;26.65;;
37431;SDS011;23292;51.300;6.252;2023-11-22T03:49:59;59.42;;;25.95;;
37431;SDS011;23292;51.300;6.252;2023-11-22T03:52:26;59.63;;;26.65;;
37431;SDS011;23292;51.300;6.252;2023-11-22T03:54:53;58.55;;;26.38;;
37431;SDS011;23292;51.300;6.252;2023-11-22T03:57:20;55.50;;;26.33;;
37431;SDS011;23292;51.300;6.252;2023-11-22T03:59:46;60.17;;;27.40;;
37431;SDS011;23292;51.300;6.252;2023-11-22T04:02:13;61.22;;;27.77;;
37431;SDS011;23292;51.300;6.252;2023-11-22T04:04:40;60.83;;;26.70;;
37431;SDS011;23292;51.300;6.252;2023-11-22T04:07:07;59.42;;;27.02;;
37431;SDS011;23292;51.300;6.252;2023-11-22T04:09:34;58.78;;;27.83;;
37431;SDS011;23292;51.300;6.252;2023-11-22T04:12:01;53.95;;;25.75;;
37431;SDS011;23292;51.300;6.252;2023-11-22T04:14:30;61.30;;;28.75;;
37431;SDS011;23292;51.300;6.252;2023-11-22T04:16:58;57.15;;;27.17;;
37431;SDS011;23292;51.300;6.252;2023-11-22T04:19:25;56.45;;;26.27;;
37431;SDS011;23292;51.300;6.252;2023-11-22T04:21:52;56.25;;;26.27;;
37431;SDS011;23292;51.300;6.252;2023-11-22T04:24:20;59.40;;;27.27;;
37431;SDS011;23292;51.300;6.252;2023-11-22T04:26:47;58.17;;;26.92;;
37431;SDS011;23292;51.300;6.252;2023-11-22T04:29:14;59.03;;;28.13;;
37431;SDS011;23292;51.300;6.252;2023-11-22T04:31:43;56.95;;;27.02;;
37431;SDS011;23292;51.300;6.252;2023-11-22T04:34:09;61.22;;;26.60;;
37431;SDS011;23292;51.300;6.252;2023-11-22T04:36:36;56.30;;;26.20;;
37431;SDS011;23292;51.300;6.252;2023-11-22T04:39:04;59.28;;;26.70;;
37431;SDS011;23292;51.300;6.252;2023-11-22T04:41:33;56.17;;;25.60;;
37431;SDS011;23292;51.300;6.252;2023-11-22T04:44:01;56.55;;;26.70;;
37431;SDS011;23292;51.300;6.252;2023-11-22T04:46:28;63.88;;;28.65;;
37431;SDS011;23292;51.300;6.252;2023-11-22T04:48:55;56.22;;;27.23;;
37431;SDS011;23292;51.300;6.252;2023-11-22T04:51:22;56.78;;;27.17;;
37431;SDS011;23292;51.300;6.252;2023-11-22T04:53:50;58.03;;;26.25;;
37431;SDS011;23292;51.300;6.252;2023-11-22T04:56:17;53.20;;;24.80;;
37431;SDS011;23292;51.300;6.252;2023-11-22T04:58:44;50.40;;;24.38;;
37431;SDS011;23292;51.300;6.252;2023-11-22T05:01:11;54.08;;;24.85;;
37431;SDS011;23292;51.300;6.252;2023-11-22T05:03:42;54.65;;;25.02;;
37431;SDS011;23292;51.300;6.252;2023-11-22T05:06:09;51.40;;;23.67;;
37431;SDS011;23292;51.300;6.252;2023-11-22T05:08:36;55.28;;;26.25;;
37431;SDS011;23292;51.300;6.252;2023-11-22T05:11:03;52.40;;;24.17;;
37431;SDS011;23292;51.300;6.252;2023-11-22T05:13:30;51.38;;;25.08;;
37431;SDS011;23292;51.300;6.252;2023-11-22T05:15:57;50.45;;;24.20;;
37431;SDS011;23292;51.300;6.252;2023-11-22T05:18:24;52.45;;;23.65;;
37431;SDS011;23292;51.300;6.252;2023-11-22T05:20:51;52.35;;;24.73;;
37431;SDS011;23292;51.300;6.252;2023-11-22T05:23:18;49.80;;;23.33;;
37431;SDS011;23292;51.300;6.252;2023-11-22T05:25:45;49.75;;;24.77;;
37431;SDS011;23292;51.300;6.252;2023-11-22T05:28:12;52.17;;;25.30;;
37431;SDS011;23292;51.300;6.252;2023-11-22T05:30:39;55.25;;;25.35;;
37431;SDS011;23292;51.300;6.252;2023-11-22T05:33:06;50.95;;;23.90;;
37431;SDS011;23292;51.300;6.252;2023-11-22T05:35:33;50.67;;;23.10;;
37431;SDS011;23292;51.300;6.252;2023-11-22T05:38:00;50.60;;;24.23;;
37431;SDS011;23292;51.300;6.252;2023-11-22T05:40:28;52.90;;;22.98;;
37431;SDS011;23292;51.300;6.252;2023-11-22T05:42:55;53.05;;;24.85;;
37431;SDS011;23292;51.300;6.252;2023-11-22T05:45:22;50.70;;;23.02;;
37431;SDS011;23292;51.300;6.252;2023-11-22T05:47:50;59.60;;;23.60;;
37431;SDS011;23292;51.300;6.252;2023-11-22T05:50:17;52.10;;;24.40;;
37431;SDS011;23292;51.300;6.252;2023-11-22T05:52:44;49.03;;;23.08;;
37431;SDS011;23292;51.300;6.252;2023-11-22T05:55:11;57.15;;;24.45;;
37431;SDS011;23292;51.300;6.252;2023-11-22T05:57:43;49.55;;;23.23;;
37431;SDS011;23292;51.300;6.252;2023-11-22T06:00:10;48.80;;;23.92;;
37431;SDS011;23292;51.300;6.252;2023-11-22T06:02:38;48.58;;;23.25;;
37431;SDS011;23292;51.300;6.252;2023-11-22T06:05:05;55.15;;;24.15;;
37431;SDS011;23292;51.300;6.252;2023-11-22T06:07:33;57.10;;;25.90;;
37431;SDS011;23292;51.300;6.252;2023-11-22T06:10:00;51.50;;;24.05;;
37431;SDS011;23292;51.300;6.252;2023-11-22T06:12:28;53.17;;;23.48;;
37431;SDS011;23292;51.300;6.252;2023-11-22T06:14:55;54.05;;;23.55;;
37431;SDS011;23292;51.300;6.252;2023-11-22T06:17:22;55.75;;;24.15;;
37431;SDS011;23292;51.300;6.252;2023-11-22T06:19:49;54.03;;;24.70;;
37431;SDS011;23292;51.300;6.252;2023-11-22T06:22:15;54.53;;;24.80;;
37431;SDS011;23292;51.300;6.252;2023-11-22T06:24:43;63.58;;;24.67;;
37431;SDS011;23292;51.300;6.252;2023-11-22T06:27:10;64.50;;;23.83;;
37431;SDS011;23292;51.300;6.252;2023-11-22T06:29:37;65.63;;;26.60;;
37431;SDS011;23292;51.300;6.252;2023-11-22T06:32:04;92.22;;;27.75;;
37431;SDS011;23292;51.300;6.252;2023-11-22T06:34:33;65.85;;;25.92;;
37431;SDS011;23292;51.300;6.252;2023-11-22T06:37:02;65.40;;;24.48;;
37431;SDS011;23292;51.300;6.252;2023-11-22T06:39:30;79.35;;;26.80;;
37431;SDS011;23292;51.300;6.252;2023-11-22T06:41:57;66.00;;;25.27;;
37431;SDS011;23292;51.300;6.252;2023-11-22T06:44:25;67.93;;;24.17;;
37431;SDS011;23292;51.300;6.252;2023-11-22T06:46:52;70.15;;;23.92;;
37431;SDS011;23292;51.300;6.252;2023-11-22T06:49:20;102.63;;;25.52;;
37431;SDS011;23292;51.300;6.252;2023-11-22T06:51:47;61.03;;;24.40;;
37431;SDS011;23292;51.300;6.252;2023-11-22T06:54:14;62.55;;;24.65;;
37431;SDS011;23292;51.300;6.252;2023-11-22T06:56:40;63.85;;;26.15;;
37431;SDS011;23292;51.300;6.252;2023-11-22T06:59:07;58.67;;;23.17;;
37431;SDS011;23292;51.300;6.252;2023-11-22T07:01:34;58.45;;;24.25;;
37431;SDS011;23292;51.300;6.252;2023-11-22T07:04:01;57.03;;;23.88;;
37431;SDS011;23292;51.300;6.252;2023-11-22T07:06:30;66.22;;;26.52;;
37431;SDS011;23292;51.300;6.252;2023-11-22T07:08:57;63.17;;;25.10;;
37431;SDS011;23292;51.300;6.252;2023-11-22T07:11:24;62.10;;;24.23;;
37431;SDS011;23292;51.300;6.252;2023-11-22T07:13:52;68.68;;;25.33;;
37431;SDS011;23292;51.300;6.252;2023-11-22T07:16:19;66.15;;;25.15;;
37431;SDS011;23292;51.300;6.252;2023-11-22T07:18:47;60.58;;;24.60;;
37431;SDS011;23292;51.300;6.252;2023-11-22T07:21:14;66.90;;;25.08;;
37431;SDS011;23292;51.300;6.252;2023-11-22T07:23:41;60.70;;;24.02;;
37431;SDS011;23292;51.300;6.252;2023-11-22T07:26:07;61.05;;;23.65;;
37431;SDS011;23292;51.300;6.252;2023-11-22T07:28:34;59.75;;;24.65;;
37431;SDS011;23292;51.300;6.252;2023-11-22T07:31:02;54.75;;;22.00;;
37431;SDS011;23292;51.300;6.252;2023-11-22T07:33:32;59.75;;;22.77;;
37431;SDS011;23292;51.300;6.252;2023-11-22T07:35:59;208.73;;;28.50;;
37431;SDS011;23292;51.300;6.252;2023-11-22T07:38:26;173.25;;;25.35;;
37431;SDS011;23292;51.300;6.252;2023-11-22T07:40:53;51.55;;;21.58;;
37431;SDS011;23292;51.300;6.252;2023-11-22T07:43:20;120.78;;;24.42;;
37431;SDS011;23292;51.300;6.252;2023-11-22T07:45:47;53.47;;;22.13;;
37431;SDS011;23292;51.300;6.252;2023-11-22T07:48:15;68.75;;;23.40;;
37431;SDS011;23292;51.300;6.252;2023-11-22T07:50:42;76.80;;;25.63;;
37431;SDS011;23292;51.300;6.252;2023-11-22T07:53:13;60.42;;;22.90;;
37431;SDS011;23292;51.300;6.252;2023-11-22T07:55:41;66.40;;;23.38;;
37431;SDS011;23292;51.300;6.252;2023-11-22T07:58:08;64.03;;;21.40;;
37431;SDS011;23292;51.300;6.252;2023-11-22T08:00:37;53.33;;;21.48;;
37431;SDS011;23292;51.300;6.252;2023-11-22T08:03:04;65.75;;;23.65;;
37431;SDS011;23292;51.300;6.252;2023-11-22T08:05:33;69.03;;;24.25;;
37431;SDS011;23292;51.300;6.252;2023-11-22T08:08:03;65.60;;;24.42;;
37431;SDS011;23292;51.300;6.252;2023-11-22T08:10:34;64.13;;;25.95;;
37431;SDS011;23292;51.300;6.252;2023-11-22T08:13:02;75.78;;;26.27;;
37431;SDS011;23292;51.300;6.252;2023-11-22T08:15:29;64.75;;;26.02;;
37431;SDS011;23292;51.300;6.252;2023-11-22T08:18:01;72.88;;;27.70;;
37431;SDS011;23292;51.300;6.252;2023-11-22T08:20:28;60.47;;;26.25;;
37431;SDS011;23292;51.300;6.252;2023-11-22T08:22:57;64.25;;;25.45;;
37431;SDS011;23292;51.300;6.252;2023-11-22T08:25:23;62.97;;;25.73;;
37431;SDS011;23292;51.300;6.252;2023-11-22T08:27:50;70.60;;;26.50;;
37431;SDS011;23292;51.300;6.252;2023-11-22T08:30:17;64.68;;;25.83;;
37431;SDS011;23292;51.300;6.252;2023-11-22T08:32:46;62.50;;;23.88;;
37431;SDS011;23292;51.300;6.252;2023-11-22T08:35:21;55.33;;;22.73;;
37431;SDS011;23292;51.300;6.252;2023-11-22T08:37:49;52.45;;;23.05;;
37431;SDS011;23292;51.300;6.252;2023-11-22T08:40:16;47.25;;;22.95;;
37431;SDS011;23292;51.300;6.252;2023-11-22T08:42:47;45.67;;;21.27;;
37431;SDS011;23292;51.300;6.252;2023-11-22T08:45:14;58.58;;;23.40;;
37431;SDS011;23292;51.300;6.252;2023-11-22T08:47:41;52.80;;;23.05;;
37431;SDS011;23292;51.300;6.252;2023-11-22T08:50:09;55.03;;;24.10;;
37431;SDS011;23292;51.300;6.252;2023-11-22T08:52:39;57.92;;;24.02;;
37431;SDS011;23292;51.300;6.252;2023-11-22T08:55:08;51.53;;;24.65;;
37431;SDS011;23292;51.300;6.252;2023-11-22T08:57:35;53.13;;;23.75;;
37431;SDS011;23292;51.300;6.252;2023-11-22T09:00:07;51.95;;;22.77;;
37431;SDS011;23292;51.300;6.252;2023-11-22T09:02:36;44.30;;;20.60;;
37431;SDS011;23292;51.300;6.252;2023-11-22T09:05:04;43.42;;;20.50;;
37431;SDS011;23292;51.300;6.252;2023-11-22T09:07:36;42.80;;;20.20;;
37431;SDS011;23292;51.300;6.252;2023-11-22T09:10:05;42.38;;;19.98;;
37431;SDS011;23292;51.300;6.252;2023-11-22T09:12:36;42.55;;;19.23;;
37431;SDS011;23292;51.300;6.252;2023-11-22T09:15:07;40.75;;;19.13;;
37431;SDS011;23292;51.300;6.252;2023-11-22T09:17:38;38.42;;;18.00;;
37431;SDS011;23292;51.300;6.252;2023-11-22T09:20:10;36.42;;;17.58;;
37431;SDS011;23292;51.300;6.252;2023-11-22T09:22:41;39.97;;;18.67;;
37431;SDS011;23292;51.300;6.252;2023-11-22T09:25:14;32.47;;;17.08;;
37431;SDS011;23292;51.300;6.252;2023-11-22T09:27:46;32.05;;;16.50;;
37431;SDS011;23292;51.300;6.252;2023-11-22T09:30:15;29.95;;;15.98;;
37431;SDS011;23292;51.300;6.252;2023-11-22T09:33:02;31.83;;;16.77;;
37431;SDS011;23292;51.300;6.252;2023-11-22T09:35:30;29.02;;;15.52;;
37431;SDS011;23292;51.300;6.252;2023-11-22T09:38:02;26.52;;;14.32;;
37431;SDS011;23292;51.300;6.252;2023-11-22T09:40:30;26.65;;;13.60;;
37431;SDS011;23292;51.300;6.252;2023-11-22T09:43:00;29.75;;;14.52;;
37431;SDS011;23292;51.300;6.252;2023-11-22T09:45:31;22.77;;;13.00;;
37431;SDS011;23292;51.300;6.252;2023-11-22T09:47:58;29.23;;;13.57;;
37431;SDS011;23292;51.300;6.252;2023-11-22T09:50:43;23.48;;;12.80;;
37431;SDS011;23292;51.300;6.252;2023-11-22T09:53:18;22.45;;;12.40;;
37431;SDS011;23292;51.300;6.252;2023-11-22T09:55:52;25.80;;;13.10;;
37431;SDS011;23292;51.300;6.252;2023-11-22T09:58:19;22.67;;;11.40;;
37431;SDS011;23292;51.300;6.252;2023-11-22T10:00:47;25.48;;;12.38;;
37431;SDS011;23292;51.300;6.252;2023-11-22T10:03:14;23.48;;;11.52;;
37431;SDS011;23292;51.300;6.252;2023-11-22T10:05:43;22.85;;;11.55;;
37431;SDS011;23292;51.300;6.252;2023-11-22T10:08:10;19.27;;;9.95;;
37431;SDS011;23292;51.300;6.252;2023-11-22T10:10:37;17.40;;;10.52;;
37431;SDS011;23292;51.300;6.252;2023-11-22T10:13:04;17.92;;;10.65;;
37431;SDS011;23292;51.300;6.252;2023-11-22T10:15:31;21.58;;;11.05;;
37431;SDS011;23292;51.300;6.252;2023-11-22T10:17:58;20.90;;;10.18;;
37431;SDS011;23292;51.300;6.252;2023-11-22T10:20:38;20.23;;;9.93;;
37431;SDS011;23292;51.300;6.252;2023-11-22T10:23:10;25.60;;;11.27;;
37431;SDS011;23292;51.300;6.252;2023-11-22T10:25:46;19.85;;;10.82;;
37431;SDS011;23292;51.300;6.252;2023-11-22T10:28:18;21.02;;;10.52;;
37431;SDS011;23292;51.300;6.252;2023-11-22T10:30:46;22.10;;;11.18;;
37431;SDS011;23292;51.300;6.252;2023-11-22T10:33:14;23.42;;;11.40;;
37431;SDS011;23292;51.300;6.252;2023-11-22T10:35:45;27.45;;;14.18;;
37431;SDS011;23292;51.300;6.252;2023-11-22T10:38:13;31.10;;;16.65;;
37431;SDS011;23292;51.300;6.252;2023-11-22T10:40:41;28.42;;;15.18;;
37431;SDS011;23292;51.300;6.252;2023-11-22T10:43:11;31.38;;;16.23;;
37431;SDS011;23292;51.300;6.252;2023-11-22T10:45:40;29.10;;;15.75;;
37431;SDS011;23292;51.300;6.252;2023-11-22T10:48:13;33.45;;;16.40;;
37431;SDS011;23292;51.300;6.252;2023-11-22T10:50:44;31.60;;;16.92;;
37431;SDS011;23292;51.300;6.252;2023-11-22T10:53:12;28.88;;;16.67;;
37431;SDS011;23292;51.300;6.252;2023-11-22T10:55:44;32.92;;;17.45;;
37431;SDS011;23292;51.300;6.252;2023-11-22T10:58:15;30.02;;;15.48;;
37431;SDS011;23292;51.300;6.252;2023-11-22T11:00:43;28.85;;;15.95;;
37431;SDS011;23292;51.300;6.252;2023-11-22T11:03:17;31.70;;;16.35;;
37431;SDS011;23292;51.300;6.252;2023-11-22T11:05:57;32.40;;;16.95;;
37431;SDS011;23292;51.300;6.252;2023-11-22T11:08:26;30.63;;;16.75;;
37431;SDS011;23292;51.300;6.252;2023-11-22T11:10:54;27.75;;;15.68;;
37431;SDS011;23292;51.300;6.252;2023-11-22T11:13:22;25.73;;;14.63;;
37431;SDS011;23292;51.300;6.252;2023-11-22T11:15:50;23.60;;;12.63;;
37431;SDS011;23292;51.300;6.252;2023-11-22T11:18:19;26.10;;;14.27;;
37431;SDS011;23292;51.300;6.252;2023-11-22T11:20:53;24.10;;;13.77;;
37431;SDS011;23292;51.300;6.252;2023-11-22T11:23:24;24.92;;;13.35;;
37431;SDS011;23292;51.300;6.252;2023-11-22T11:25:53;29.95;;;17.25;;
37431;SDS011;23292;51.300;6.252;2023-11-22T11:28:21;32.10;;;17.17;;
37431;SDS011;23292;51.300;6.252;2023-11-22T11:30:52;41.65;;;18.85;;
37431;SDS011;23292;51.300;6.252;2023-11-22T11:33:32;28.50;;;16.20;;
37431;SDS011;23292;51.300;6.252;2023-11-22T11:36:01;25.58;;;13.55;;
37431;SDS011;23292;51.300;6.252;2023-11-22T11:38:39;26.58;;;14.90;;
37431;SDS011;23292;51.300;6.252;2023-11-22T11:41:09;24.05;;;13.98;;
37431;SDS011;23292;51.300;6.252;2023-11-22T11:43:42;27.48;;;13.80;;
37431;SDS011;23292;51.300;6.252;2023-11-22T11:46:14;24.98;;;12.93;;
37431;SDS011;23292;51.300;6.252;2023-11-22T11:48:43;23.38;;;12.88;;
37431;SDS011;23292;51.300;6.252;2023-11-22T11:51:21;22.85;;;11.95;;
37431;SDS011;23292;51.300;6.252;2023-11-22T11:53:49;24.95;;;12.73;;
37431;SDS011;23292;51.300;6.252;2023-11-22T11:56:16;25.73;;;13.20;;
37431;SDS011;23292;51.300;6.252;2023-11-22T11:58:44;25.73;;;13.52;;
37431;SDS011;23292;51.300;6.252;2023-11-22T12:01:13;29.33;;;15.38;;
37431;SDS011;23292;51.300;6.252;2023-11-22T12:03:43;28.48;;;13.75;;
37431;SDS011;23292;51.300;6.252;2023-11-22T12:06:11;26.45;;;14.23;;
37431;SDS011;23292;51.300;6.252;2023-11-22T12:08:41;29.23;;;14.37;;
37431;SDS011;23292;51.300;6.252;2023-11-22T12:11:08;25.75;;;14.00;;
37431;SDS011;23292;51.300;6.252;2023-11-22T12:13:37;23.58;;;12.23;;
37431;SDS011;23292;51.300;6.252;2023-11-22T12:16:16;30.10;;;14.23;;
37431;SDS011;23292;51.300;6.252;2023-11-22T12:18:45;28.30;;;14.23;;
37431;SDS011;23292;51.300;6.252;2023-11-22T12:21:14;28.15;;;13.10;;
37431;SDS011;23292;51.300;6.252;2023-11-22T12:23:46;33.83;;;15.65;;
37431;SDS011;23292;51.300;6.252;2023-11-22T12:26:16;27.92;;;14.38;;
37431;SDS011;23292;51.300;6.252;2023-11-22T12:28:47;29.85;;;13.20;;
37431;SDS011;23292;51.300;6.252;2023-11-22T12:31:29;24.63;;;11.50;;
37431;SDS011;23292;51.300;6.252;2023-11-22T12:34:02;22.00;;;11.25;;
37431;SDS011;23292;51.300;6.252;2023-11-22T12:36:30;25.30;;;11.82;;
37431;SDS011;23292;51.300;6.252;2023-11-22T12:38:57;26.77;;;13.10;;
37431;SDS011;23292;51.300;6.252;2023-11-22T12:41:28;28.10;;;11.20;;
37431;SDS011;23292;51.300;6.252;2023-11-22T12:44:03;23.42;;;12.27;;
37431;SDS011;23292;51.300;6.252;2023-11-22T12:46:51;24.73;;;11.95;;
37431;SDS011;23292;51.300;6.252;2023-11-22T12:49:24;26.45;;;12.07;;
37431;SDS011;23292;51.300;6.252;2023-11-22T12:51:53;25.08;;;11.55;;
37431;SDS011;23292;51.300;6.252;2023-11-22T12:54:21;20.30;;;10.40;;
37431;SDS011;23292;51.300;6.252;2023-11-22T12:56:48;26.33;;;11.68;;
37431;SDS011;23292;51.300;6.252;2023-11-22T12:59:16;24.33;;;11.73;;
37431;SDS011;23292;51.300;6.252;2023-11-22T13:01:44;24.55;;;11.43;;
37431;SDS011;23292;51.300;6.252;2023-11-22T13:04:11;19.52;;;9.77;;
37431;SDS011;23292;51.300;6.252;2023-11-22T13:06:41;22.40;;;9.98;;
37431;SDS011;23292;51.300;6.252;2023-11-22T13:09:08;22.48;;;10.50;;
37431;SDS011;23292;51.300;6.252;2023-11-22T13:11:41;19.77;;;9.82;;
37431;SDS011;23292;51.300;6.252;2023-11-22T13:14:13;18.65;;;9.05;;
37431;SDS011;23292;51.300;6.252;2023-11-22T13:16:43;21.25;;;10.55;;
37431;SDS011;23292;51.300;6.252;2023-11-22T13:19:11;16.23;;;8.88;;
37431;SDS011;23292;51.300;6.252;2023-11-22T13:21:38;19.80;;;9.90;;
37431;SDS011;23292;51.300;6.252;2023-11-22T13:24:07;20.15;;;9.77;;
37431;SDS011;23292;51.300;6.252;2023-11-22T13:26:34;17.42;;;8.85;;
37431;SDS011;23292;51.300;6.252;2023-11-22T13:29:01;21.27;;;10.55;;
37431;SDS011;23292;51.300;6.252;2023-11-22T13:31:28;18.25;;;9.93;;
37431;SDS011;23292;51.300;6.252;2023-11-22T13:33:55;20.30;;;10.57;;
37431;SDS011;23292;51.300;6.252;2023-11-22T13:36:22;20.60;;;10.93;;
37431;SDS011;23292;51.300;6.252;2023-11-22T13:38:49;28.42;;;11.05;;
37431;SDS011;23292;51.300;6.252;2023-11-22T13:41:16;21.88;;;10.68;;
37431;SDS011;23292;51.300;6.252;2023-11-22T13:43:43;19.95;;;10.15;;
37431;SDS011;23292;51.300;6.252;2023-11-22T13:46:12;19.92;;;10.95;;
37431;SDS011;23292;51.300;6.252;2023-11-22T13:48:41;20.23;;;10.23;;
37431;SDS011;23292;51.300;6.252;2023-11-22T13:51:07;19.58;;;10.35;;
37431;SDS011;23292;51.300;6.252;2023-11-22T13:53:37;23.05;;;11.43;;
37431;SDS011;23292;51.300;6.252;2023-11-22T13:56:09;20.90;;;10.95;;
37431;SDS011;23292;51.300;6.252;2023-11-22T13:58:36;23.27;;;11.82;;
37431;SDS011;23292;51.300;6.252;2023-11-22T14:01:04;22.40;;;12.15;;
37431;SDS011;23292;51.300;6.252;2023-11-22T14:03:36;18.90;;;10.00;;
37431;SDS011;23292;51.300;6.252;2023-11-22T14:06:03;22.73;;;11.55;;
37431;SDS011;23292;51.300;6.252;2023-11-22T14:08:31;23.25;;;12.73;;
37431;SDS011;23292;51.300;6.252;2023-11-22T14:10:59;24.85;;;12.77;;
37431;SDS011;23292;51.300;6.252;2023-11-22T14:13:25;22.15;;;11.80;;
37431;SDS011;23292;51.300;6.252;2023-11-22T14:15:52;23.90;;;13.30;;
37431;SDS011;23292;51.300;6.252;2023-11-22T14:18:19;25.30;;;12.50;;
37431;SDS011;23292;51.300;6.252;2023-11-22T14:20:46;24.67;;;13.02;;
37431;SDS011;23292;51.300;6.252;2023-11-22T14:23:13;26.55;;;13.38;;
37431;SDS011;23292;51.300;6.252;2023-11-22T14:25:40;23.77;;;13.27;;
37431;SDS011;23292;51.300;6.252;2023-11-22T14:28:08;29.23;;;14.77;;